Enter the Airport ICAO Code

Search by Airport or City

Current Weather

LEVC | Valencia Airport

Valencia, Valencian Community, Spain

Last Update 27 Minutes Ago

Partly Cloudy Sky

Temperature of 28 ºC

Light to Moderate Winds from East

Temperature

28 ºC

Dew Point Temperature

22 ºC

Relative Humidity

70.07 %

Wind Direction

East (080º, Ranging from 030º to 110º)

Wind Velocity

13 km/h (07 kt)

Gusts

None

Visibility

Greater than 10 Kilometers

Sea Level Pressure

1019 hPa (Hectopascals)

Layers of Clouds

30% to 60% of Sky Covered from 762 mts (2500 ft) Above Ground Level.

METAR LEVC 131030Z 08007KT 030V110 9999 SCT025 28/22 Q1019 NOSIG

Weather Forecast

LEVC | Valencia Airport

Valencia, Valencian Community, Spain

Forecast valid for the next 19 Hours

From now on it is expected:

Moderate Winds from East

In 9 to 11 hours it is expected the begining of:

Light Winds from Variable Directions

Maximum Temperature

31 ºC in 1 Hour

Minimum Temperature

21 ºC in -5 Hours

TAF LEVC 130500Z 1306/1406 VRB04KT 9999 FEW020 TX31/1312Z TN21/1306Z BECMG 1309/1311 09010KT BECMG 1320/1322 VRB04KT